sensor_id;sensor_type;location;lat;lon;timestamp;temperature;humidity
79187;SHT31;68762;51.980;5.646;2024-03-08T00:00:33;6.5;62.3
79187;SHT31;68762;51.980;5.646;2024-03-08T00:03:04;6.4;62.3
79187;SHT31;68762;51.980;5.646;2024-03-08T00:05:34;6.4;62.3
79187;SHT31;68762;51.980;5.646;2024-03-08T00:08:05;6.4;62.2
79187;SHT31;68762;51.980;5.646;2024-03-08T00:10:36;6.4;62.2
79187;SHT31;68762;51.980;5.646;2024-03-08T00:13:05;6.3;62.2
79187;SHT31;68762;51.980;5.646;2024-03-08T00:15:34;6.3;62.4
79187;SHT31;68762;51.980;5.646;2024-03-08T00:18:02;6.3;62.2
79187;SHT31;68762;51.980;5.646;2024-03-08T00:20:31;6.3;62.2
79187;SHT31;68762;51.980;5.646;2024-03-08T00:23:00;6.3;62.4
79187;SHT31;68762;51.980;5.646;2024-03-08T00:25:29;6.2;62.2
79187;SHT31;68762;51.980;5.646;2024-03-08T00:27:57;6.2;62.1
79187;SHT31;68762;51.980;5.646;2024-03-08T00:30:26;6.2;62.2
79187;SHT31;68762;51.980;5.646;2024-03-08T00:32:55;6.2;62.3
79187;SHT31;68762;51.980;5.646;2024-03-08T00:35:24;6.1;62.2
79187;SHT31;68762;51.980;5.646;2024-03-08T00:37:52;6.1;62.1
79187;SHT31;68762;51.980;5.646;2024-03-08T00:40:22;6.1;62.0
79187;SHT31;68762;51.980;5.646;2024-03-08T00:42:51;6.1;62.0
79187;SHT31;68762;51.980;5.646;2024-03-08T00:45:20;6.0;62.1
79187;SHT31;68762;51.980;5.646;2024-03-08T00:47:50;6.0;62.2
79187;SHT31;68762;51.980;5.646;2024-03-08T00:50:18;6.0;62.3
79187;SHT31;68762;51.980;5.646;2024-03-08T00:52:47;6.0;62.4
79187;SHT31;68762;51.980;5.646;2024-03-08T00:55:18;5.9;62.0
79187;SHT31;68762;51.980;5.646;2024-03-08T00:57:47;5.9;62.2
79187;SHT31;68762;51.980;5.646;2024-03-08T01:00:18;5.9;62.2
79187;SHT31;68762;51.980;5.646;2024-03-08T01:02:47;5.9;62.2
79187;SHT31;68762;51.980;5.646;2024-03-08T01:05:18;5.8;62.3
79187;SHT31;68762;51.980;5.646;2024-03-08T01:07:46;5.8;62.1
79187;SHT31;68762;51.980;5.646;2024-03-08T01:10:16;5.8;62.2
79187;SHT31;68762;51.980;5.646;2024-03-08T01:12:44;5.8;62.3
79187;SHT31;68762;51.980;5.646;2024-03-08T01:15:13;5.8;62.3
79187;SHT31;68762;51.980;5.646;2024-03-08T01:17:41;5.7;62.2
79187;SHT31;68762;51.980;5.646;2024-03-08T01:20:10;5.7;62.0
79187;SHT31;68762;51.980;5.646;2024-03-08T01:22:41;5.7;62.1
79187;SHT31;68762;51.980;5.646;2024-03-08T01:25:10;5.7;62.2
79187;SHT31;68762;51.980;5.646;2024-03-08T01:27:40;5.6;62.2
79187;SHT31;68762;51.980;5.646;2024-03-08T01:30:09;5.6;62.0
79187;SHT31;68762;51.980;5.646;2024-03-08T01:32:39;5.6;62.2
79187;SHT31;68762;51.980;5.646;2024-03-08T01:35:09;5.6;62.1
79187;SHT31;68762;51.980;5.646;2024-03-08T01:37:38;5.5;61.9
79187;SHT31;68762;51.980;5.646;2024-03-08T01:40:07;5.5;61.9
79187;SHT31;68762;51.980;5.646;2024-03-08T01:42:37;5.5;61.9
79187;SHT31;68762;51.980;5.646;2024-03-08T01:45:06;5.5;62.1
79187;SHT31;68762;51.980;5.646;2024-03-08T01:47:36;5.5;62.0
79187;SHT31;68762;51.980;5.646;2024-03-08T01:50:06;5.4;61.8
79187;SHT31;68762;51.980;5.646;2024-03-08T01:52:37;5.4;61.9
79187;SHT31;68762;51.980;5.646;2024-03-08T01:55:07;5.4;61.7
79187;SHT31;68762;51.980;5.646;2024-03-08T01:57:36;5.4;61.7
79187;SHT31;68762;51.980;5.646;2024-03-08T02:00:06;5.4;61.6
79187;SHT31;68762;51.980;5.646;2024-03-08T02:02:37;5.3;61.5
79187;SHT31;68762;51.980;5.646;2024-03-08T02:05:06;5.3;61.3
79187;SHT31;68762;51.980;5.646;2024-03-08T02:07:35;5.3;61.7
79187;SHT31;68762;51.980;5.646;2024-03-08T02:10:04;5.3;61.3
79187;SHT31;68762;51.980;5.646;2024-03-08T02:12:35;5.3;61.2
79187;SHT31;68762;51.980;5.646;2024-03-08T02:15:05;5.3;61.2
79187;SHT31;68762;51.980;5.646;2024-03-08T02:17:34;5.2;61.0
79187;SHT31;68762;51.980;5.646;2024-03-08T02:20:03;5.2;61.2
79187;SHT31;68762;51.980;5.646;2024-03-08T02:22:32;5.2;61.4
79187;SHT31;68762;51.980;5.646;2024-03-08T02:25:02;5.2;61.0
79187;SHT31;68762;51.980;5.646;2024-03-08T02:27:32;5.2;61.0
79187;SHT31;68762;51.980;5.646;2024-03-08T02:30:00;5.2;60.5
79187;SHT31;68762;51.980;5.646;2024-03-08T02:32:31;5.2;60.7
79187;SHT31;68762;51.980;5.646;2024-03-08T02:34:59;5.1;60.8
79187;SHT31;68762;51.980;5.646;2024-03-08T02:37:28;5.1;60.5
79187;SHT31;68762;51.980;5.646;2024-03-08T02:39:57;5.1;60.3
79187;SHT31;68762;51.980;5.646;2024-03-08T02:42:26;5.1;60.6
79187;SHT31;68762;51.980;5.646;2024-03-08T02:44:55;5.1;60.4
79187;SHT31;68762;51.980;5.646;2024-03-08T02:47:24;5.1;60.6
79187;SHT31;68762;51.980;5.646;2024-03-08T02:49:53;5.1;60.2
79187;SHT31;68762;51.980;5.646;2024-03-08T02:52:22;5.0;60.4
79187;SHT31;68762;51.980;5.646;2024-03-08T02:54:51;5.0;60.4
79187;SHT31;68762;51.980;5.646;2024-03-08T02:57:19;5.0;60.3
79187;SHT31;68762;51.980;5.646;2024-03-08T02:59:48;5.0;60.3
79187;SHT31;68762;51.980;5.646;2024-03-08T03:02:17;5.0;60.4
79187;SHT31;68762;51.980;5.646;2024-03-08T03:04:47;5.0;60.4
79187;SHT31;68762;51.980;5.646;2024-03-08T03:07:16;5.0;59.9
79187;SHT31;68762;51.980;5.646;2024-03-08T03:09:45;4.9;60.1
79187;SHT31;68762;51.980;5.646;2024-03-08T03:12:14;4.9;60.2
79187;SHT31;68762;51.980;5.646;2024-03-08T03:14:44;4.9;60.3
79187;SHT31;68762;51.980;5.646;2024-03-08T03:17:14;4.9;60.4
79187;SHT31;68762;51.980;5.646;2024-03-08T03:19:45;4.9;60.5
79187;SHT31;68762;51.980;5.646;2024-03-08T03:22:16;4.9;60.1
79187;SHT31;68762;51.980;5.646;2024-03-08T03:24:45;4.9;60.7
79187;SHT31;68762;51.980;5.646;2024-03-08T03:27:15;4.8;60.4
79187;SHT31;68762;51.980;5.646;2024-03-08T03:29:44;4.8;60.4
79187;SHT31;68762;51.980;5.646;2024-03-08T03:32:15;4.8;60.7
79187;SHT31;68762;51.980;5.646;2024-03-08T03:34:45;4.8;60.6
79187;SHT31;68762;51.980;5.646;2024-03-08T03:37:13;4.8;60.7
79187;SHT31;68762;51.980;5.646;2024-03-08T03:39:46;4.8;60.5
79187;SHT31;68762;51.980;5.646;2024-03-08T03:42:19;4.8;61.0
79187;SHT31;68762;51.980;5.646;2024-03-08T03:44:48;4.8;60.4
79187;SHT31;68762;51.980;5.646;2024-03-08T03:47:17;4.8;60.8
79187;SHT31;68762;51.980;5.646;2024-03-08T03:49:46;4.7;61.0
79187;SHT31;68762;51.980;5.646;2024-03-08T03:52:14;4.7;60.7
79187;SHT31;68762;51.980;5.646;2024-03-08T03:54:43;4.7;60.9
79187;SHT31;68762;51.980;5.646;2024-03-08T03:57:12;4.7;60.7
79187;SHT31;68762;51.980;5.646;2024-03-08T03:59:41;4.7;60.7
79187;SHT31;68762;51.980;5.646;2024-03-08T04:02:09;4.7;61.1
79187;SHT31;68762;51.980;5.646;2024-03-08T04:04:38;4.7;60.8
79187;SHT31;68762;51.980;5.646;2024-03-08T04:07:07;4.7;61.2
79187;SHT31;68762;51.980;5.646;2024-03-08T04:09:37;4.7;61.1
79187;SHT31;68762;51.980;5.646;2024-03-08T04:12:06;4.6;61.0
79187;SHT31;68762;51.980;5.646;2024-03-08T04:14:36;4.6;61.1
79187;SHT31;68762;51.980;5.646;2024-03-08T04:17:06;4.6;60.9
79187;SHT31;68762;51.980;5.646;2024-03-08T04:19:35;4.6;61.1
79187;SHT31;68762;51.980;5.646;2024-03-08T04:22:05;4.6;61.0
79187;SHT31;68762;51.980;5.646;2024-03-08T04:24:34;4.6;61.1
79187;SHT31;68762;51.980;5.646;2024-03-08T04:27:02;4.6;61.0
79187;SHT31;68762;51.980;5.646;2024-03-08T04:29:31;4.6;61.3
79187;SHT31;68762;51.980;5.646;2024-03-08T04:32:04;4.5;61.3
79187;SHT31;68762;51.980;5.646;2024-03-08T04:34:33;4.5;61.2
79187;SHT31;68762;51.980;5.646;2024-03-08T04:37:02;4.5;61.4
79187;SHT31;68762;51.980;5.646;2024-03-08T04:39:32;4.5;61.5
79187;SHT31;68762;51.980;5.646;2024-03-08T04:42:02;4.5;61.4
79187;SHT31;68762;51.980;5.646;2024-03-08T04:44:33;4.5;61.0
79187;SHT31;68762;51.980;5.646;2024-03-08T04:47:01;4.5;61.4
79187;SHT31;68762;51.980;5.646;2024-03-08T04:49:32;4.5;61.4
79187;SHT31;68762;51.980;5.646;2024-03-08T04:52:03;4.5;61.6
79187;SHT31;68762;51.980;5.646;2024-03-08T04:54:31;4.5;61.5
79187;SHT31;68762;51.980;5.646;2024-03-08T04:57:00;4.5;61.4
79187;SHT31;68762;51.980;5.646;2024-03-08T04:59:31;4.4;61.6
79187;SHT31;68762;51.980;5.646;2024-03-08T05:01:59;4.4;61.4
79187;SHT31;68762;51.980;5.646;2024-03-08T05:04:28;4.4;61.3
79187;SHT31;68762;51.980;5.646;2024-03-08T05:06:57;4.4;61.7
79187;SHT31;68762;51.980;5.646;2024-03-08T05:09:29;4.4;61.2
79187;SHT31;68762;51.980;5.646;2024-03-08T05:12:00;4.4;61.3
79187;SHT31;68762;51.980;5.646;2024-03-08T05:14:28;4.4;61.3
79187;SHT31;68762;51.980;5.646;2024-03-08T05:16:57;4.4;61.5
79187;SHT31;68762;51.980;5.646;2024-03-08T05:19:27;4.4;61.5
79187;SHT31;68762;51.980;5.646;2024-03-08T05:21:56;4.4;61.4
79187;SHT31;68762;51.980;5.646;2024-03-08T05:24:25;4.4;61.5
79187;SHT31;68762;51.980;5.646;2024-03-08T05:26:53;4.4;61.4
79187;SHT31;68762;51.980;5.646;2024-03-08T05:29:22;4.4;61.4
79187;SHT31;68762;51.980;5.646;2024-03-08T05:31:52;4.4;61.5
79187;SHT31;68762;51.980;5.646;2024-03-08T05:34:21;4.4;61.4
79187;SHT31;68762;51.980;5.646;2024-03-08T05:36:50;4.3;61.2
79187;SHT31;68762;51.980;5.646;2024-03-08T05:39:21;4.3;61.4
79187;SHT31;68762;51.980;5.646;2024-03-08T05:41:51;4.3;61.4
79187;SHT31;68762;51.980;5.646;2024-03-08T05:44:22;4.3;61.3
79187;SHT31;68762;51.980;5.646;2024-03-08T05:46:52;4.3;61.5
79187;SHT31;68762;51.980;5.646;2024-03-08T05:49:22;4.3;61.3
79187;SHT31;68762;51.980;5.646;2024-03-08T05:51:51;4.3;61.7
79187;SHT31;68762;51.980;5.646;2024-03-08T05:54:20;4.3;61.5
79187;SHT31;68762;51.980;5.646;2024-03-08T05:56:50;4.3;61.4
79187;SHT31;68762;51.980;5.646;2024-03-08T05:59:19;4.3;61.6
79187;SHT31;68762;51.980;5.646;2024-03-08T06:01:49;4.3;61.6
79187;SHT31;68762;51.980;5.646;2024-03-08T06:04:18;4.3;61.6
79187;SHT31;68762;51.980;5.646;2024-03-08T06:06:46;4.3;61.3
79187;SHT31;68762;51.980;5.646;2024-03-08T06:09:18;4.3;61.5
79187;SHT31;68762;51.980;5.646;2024-03-08T06:11:49;4.3;61.4
79187;SHT31;68762;51.980;5.646;2024-03-08T06:14:18;4.3;61.4
79187;SHT31;68762;51.980;5.646;2024-03-08T06:16:46;4.3;61.5
79187;SHT31;68762;51.980;5.646;2024-03-08T06:19:16;4.3;61.6
79187;SHT31;68762;51.980;5.646;2024-03-08T06:21:45;4.3;61.4
79187;SHT31;68762;51.980;5.646;2024-03-08T06:24:13;4.3;61.5
79187;SHT31;68762;51.980;5.646;2024-03-08T06:26:44;4.3;61.8
79187;SHT31;68762;51.980;5.646;2024-03-08T06:29:12;4.3;61.7
79187;SHT31;68762;51.980;5.646;2024-03-08T06:31:42;4.3;61.6
79187;SHT31;68762;51.980;5.646;2024-03-08T06:34:10;4.3;61.9
79187;SHT31;68762;51.980;5.646;2024-03-08T06:36:39;4.3;61.6
79187;SHT31;68762;51.980;5.646;2024-03-08T06:39:09;4.3;61.9
79187;SHT31;68762;51.980;5.646;2024-03-08T06:41:38;4.3;61.7
79187;SHT31;68762;51.980;5.646;2024-03-08T06:44:07;4.3;61.8
79187;SHT31;68762;51.980;5.646;2024-03-08T06:46:36;4.3;61.6
79187;SHT31;68762;51.980;5.646;2024-03-08T06:49:05;4.3;61.4
79187;SHT31;68762;51.980;5.646;2024-03-08T06:51:35;4.3;61.8
79187;SHT31;68762;51.980;5.646;2024-03-08T06:54:04;4.3;61.9
79187;SHT31;68762;51.980;5.646;2024-03-08T06:56:35;4.3;61.7
79187;SHT31;68762;51.980;5.646;2024-03-08T06:59:04;4.3;62.1
79187;SHT31;68762;51.980;5.646;2024-03-08T07:01:33;4.3;62.2
79187;SHT31;68762;51.980;5.646;2024-03-08T07:04:03;4.3;61.7
79187;SHT31;68762;51.980;5.646;2024-03-08T07:06:32;4.3;62.0
79187;SHT31;68762;51.980;5.646;2024-03-08T07:09:03;4.3;61.8
79187;SHT31;68762;51.980;5.646;2024-03-08T07:11:31;4.3;62.0
79187;SHT31;68762;51.980;5.646;2024-03-08T07:14:01;4.4;62.0
79187;SHT31;68762;51.980;5.646;2024-03-08T07:16:32;4.4;61.9
79187;SHT31;68762;51.980;5.646;2024-03-08T07:19:02;4.4;61.9
79187;SHT31;68762;51.980;5.646;2024-03-08T07:21:31;4.4;61.9
79187;SHT31;68762;51.980;5.646;2024-03-08T07:24:00;4.4;62.0
79187;SHT31;68762;51.980;5.646;2024-03-08T07:26:36;4.5;61.5
79187;SHT31;68762;51.980;5.646;2024-03-08T07:29:05;4.5;61.2
79187;SHT31;68762;51.980;5.646;2024-03-08T07:31:34;4.5;61.7
79187;SHT31;68762;51.980;5.646;2024-03-08T07:34:11;4.6;61.3
79187;SHT31;68762;51.980;5.646;2024-03-08T07:36:41;4.6;61.4
79187;SHT31;68762;51.980;5.646;2024-03-08T07:39:10;4.6;61.0
79187;SHT31;68762;51.980;5.646;2024-03-08T07:41:40;4.7;61.0
79187;SHT31;68762;51.980;5.646;2024-03-08T07:44:08;4.7;60.6
79187;SHT31;68762;51.980;5.646;2024-03-08T07:46:37;4.7;61.2
79187;SHT31;68762;51.980;5.646;2024-03-08T07:49:07;4.8;61.3
79187;SHT31;68762;51.980;5.646;2024-03-08T07:51:37;4.8;61.0
79187;SHT31;68762;51.980;5.646;2024-03-08T07:54:06;4.9;60.1
79187;SHT31;68762;51.980;5.646;2024-03-08T07:56:35;4.9;59.8
79187;SHT31;68762;51.980;5.646;2024-03-08T07:59:04;4.9;59.8
79187;SHT31;68762;51.980;5.646;2024-03-08T08:01:34;5.0;60.2
79187;SHT31;68762;51.980;5.646;2024-03-08T08:04:05;5.0;59.8
79187;SHT31;68762;51.980;5.646;2024-03-08T08:06:38;5.1;59.9
79187;SHT31;68762;51.980;5.646;2024-03-08T08:09:07;5.1;59.9
79187;SHT31;68762;51.980;5.646;2024-03-08T08:11:42;5.2;59.4
79187;SHT31;68762;51.980;5.646;2024-03-08T08:14:13;5.2;60.2
79187;SHT31;68762;51.980;5.646;2024-03-08T08:16:41;5.3;59.7
79187;SHT31;68762;51.980;5.646;2024-03-08T08:19:11;5.3;59.8
79187;SHT31;68762;51.980;5.646;2024-03-08T08:21:40;5.4;58.5
79187;SHT31;68762;51.980;5.646;2024-03-08T08:24:09;5.4;58.4
79187;SHT31;68762;51.980;5.646;2024-03-08T08:26:37;5.5;58.4
79187;SHT31;68762;51.980;5.646;2024-03-08T08:29:06;5.5;59.2
79187;SHT31;68762;51.980;5.646;2024-03-08T08:31:34;5.6;58.9
79187;SHT31;68762;51.980;5.646;2024-03-08T08:34:03;5.7;59.2
79187;SHT31;68762;51.980;5.646;2024-03-08T08:36:32;5.7;58.6
79187;SHT31;68762;51.980;5.646;2024-03-08T08:39:01;5.8;58.6
79187;SHT31;68762;51.980;5.646;2024-03-08T08:41:30;5.8;58.1
79187;SHT31;68762;51.980;5.646;2024-03-08T08:43:59;5.9;58.3
79187;SHT31;68762;51.980;5.646;2024-03-08T08:46:27;6.0;57.7
79187;SHT31;68762;51.980;5.646;2024-03-08T08:48:56;6.0;57.7
79187;SHT31;68762;51.980;5.646;2024-03-08T08:51:25;6.1;57.8
79187;SHT31;68762;51.980;5.646;2024-03-08T08:53:54;6.1;57.0
79187;SHT31;68762;51.980;5.646;2024-03-08T08:56:24;6.2;57.3
79187;SHT31;68762;51.980;5.646;2024-03-08T08:58:55;6.2;58.2
79187;SHT31;68762;51.980;5.646;2024-03-08T09:01:24;6.3;57.3
79187;SHT31;68762;51.980;5.646;2024-03-08T09:03:53;6.3;56.5
79187;SHT31;68762;51.980;5.646;2024-03-08T09:06:24;6.4;56.9
79187;SHT31;68762;51.980;5.646;2024-03-08T09:08:54;6.5;57.1
79187;SHT31;68762;51.980;5.646;2024-03-08T09:11:24;6.5;57.2
79187;SHT31;68762;51.980;5.646;2024-03-08T09:13:53;6.6;56.7
79187;SHT31;68762;51.980;5.646;2024-03-08T09:16:21;6.6;56.2
79187;SHT31;68762;51.980;5.646;2024-03-08T09:18:51;6.7;56.6
79187;SHT31;68762;51.980;5.646;2024-03-08T09:21:19;6.7;55.4
79187;SHT31;68762;51.980;5.646;2024-03-08T09:23:48;6.8;56.2
79187;SHT31;68762;51.980;5.646;2024-03-08T09:26:18;6.8;56.5
79187;SHT31;68762;51.980;5.646;2024-03-08T09:28:46;6.9;55.2
79187;SHT31;68762;51.980;5.646;2024-03-08T09:31:15;6.9;55.3
79187;SHT31;68762;51.980;5.646;2024-03-08T09:33:46;7.0;56.3
79187;SHT31;68762;51.980;5.646;2024-03-08T09:36:14;7.0;56.9
79187;SHT31;68762;51.980;5.646;2024-03-08T09:38:43;7.1;55.6
79187;SHT31;68762;51.980;5.646;2024-03-08T09:41:15;7.2;55.7
79187;SHT31;68762;51.980;5.646;2024-03-08T09:43:45;7.2;56.0
79187;SHT31;68762;51.980;5.646;2024-03-08T09:46:14;7.3;55.0
79187;SHT31;68762;51.980;5.646;2024-03-08T09:48:45;7.4;55.8
79187;SHT31;68762;51.980;5.646;2024-03-08T09:51:14;7.4;56.5
79187;SHT31;68762;51.980;5.646;2024-03-08T09:53:43;7.5;55.4
79187;SHT31;68762;51.980;5.646;2024-03-08T09:56:13;7.7;56.0
79187;SHT31;68762;51.980;5.646;2024-03-08T09:58:43;7.8;55.2
79187;SHT31;68762;51.980;5.646;2024-03-08T10:01:27;8.0;54.1
79187;SHT31;68762;51.980;5.646;2024-03-08T10:03:59;8.1;53.7
79187;SHT31;68762;51.980;5.646;2024-03-08T10:06:27;8.2;53.4
79187;SHT31;68762;51.980;5.646;2024-03-08T10:08:56;8.3;53.4
79187;SHT31;68762;51.980;5.646;2024-03-08T10:11:25;8.4;53.0
79187;SHT31;68762;51.980;5.646;2024-03-08T10:13:55;8.4;54.0
79187;SHT31;68762;51.980;5.646;2024-03-08T10:16:25;8.5;52.6
79187;SHT31;68762;51.980;5.646;2024-03-08T10:18:56;8.6;52.4
79187;SHT31;68762;51.980;5.646;2024-03-08T10:21:24;8.7;52.9
79187;SHT31;68762;51.980;5.646;2024-03-08T10:23:53;8.8;52.5
79187;SHT31;68762;51.980;5.646;2024-03-08T10:26:22;8.9;51.7
79187;SHT31;68762;51.980;5.646;2024-03-08T10:28:52;8.9;52.7
79187;SHT31;68762;51.980;5.646;2024-03-08T10:31:21;9.0;52.3
79187;SHT31;68762;51.980;5.646;2024-03-08T10:33:49;9.1;51.2
79187;SHT31;68762;51.980;5.646;2024-03-08T10:36:19;9.3;50.3
79187;SHT31;68762;51.980;5.646;2024-03-08T10:38:51;9.4;51.1
79187;SHT31;68762;51.980;5.646;2024-03-08T10:41:23;9.5;51.5
79187;SHT31;68762;51.980;5.646;2024-03-08T10:44:07;9.6;50.8
79187;SHT31;68762;51.980;5.646;2024-03-08T10:46:50;9.9;50.3
79187;SHT31;68762;51.980;5.646;2024-03-08T10:49:30;10.1;49.9
79187;SHT31;68762;51.980;5.646;2024-03-08T10:52:01;10.4;49.5
79187;SHT31;68762;51.980;5.646;2024-03-08T10:54:31;10.8;48.8
79187;SHT31;68762;51.980;5.646;2024-03-08T10:57:03;11.4;46.7
79187;SHT31;68762;51.980;5.646;2024-03-08T10:59:35;12.0;45.9
79187;SHT31;68762;51.980;5.646;2024-03-08T11:02:03;12.7;44.2
79187;SHT31;68762;51.980;5.646;2024-03-08T11:04:33;13.3;42.9
79187;SHT31;68762;51.980;5.646;2024-03-08T11:07:03;13.9;41.2
79187;SHT31;68762;51.980;5.646;2024-03-08T11:09:36;14.4;40.3
79187;SHT31;68762;51.980;5.646;2024-03-08T11:12:27;14.9;39.3
79187;SHT31;68762;51.980;5.646;2024-03-08T11:15:01;15.5;38.1
79187;SHT31;68762;51.980;5.646;2024-03-08T11:17:45;15.8;37.7
79187;SHT31;68762;51.980;5.646;2024-03-08T11:20:16;16.2;37.4
79187;SHT31;68762;51.980;5.646;2024-03-08T11:22:52;16.5;36.6
79187;SHT31;68762;51.980;5.646;2024-03-08T11:25:35;16.8;36.3
79187;SHT31;68762;51.980;5.646;2024-03-08T11:28:14;17.1;34.3
79187;SHT31;68762;51.980;5.646;2024-03-08T11:30:45;17.3;34.4
79187;SHT31;68762;51.980;5.646;2024-03-08T11:33:15;17.5;33.6
79187;SHT31;68762;51.980;5.646;2024-03-08T11:35:45;17.7;34.3
79187;SHT31;68762;51.980;5.646;2024-03-08T11:38:15;17.8;33.0
79187;SHT31;68762;51.980;5.646;2024-03-08T11:40:46;18.0;33.1
79187;SHT31;68762;51.980;5.646;2024-03-08T11:43:20;18.2;33.0
79187;SHT31;68762;51.980;5.646;2024-03-08T11:45:49;18.3;31.9
79187;SHT31;68762;51.980;5.646;2024-03-08T11:48:19;18.4;32.8
79187;SHT31;68762;51.980;5.646;2024-03-08T11:51:00;18.6;32.7
79187;SHT31;68762;51.980;5.646;2024-03-08T11:53:31;18.8;31.7
79187;SHT31;68762;51.980;5.646;2024-03-08T11:56:07;19.1;32.4
79187;SHT31;68762;51.980;5.646;2024-03-08T11:58:36;19.4;30.0
79187;SHT31;68762;51.980;5.646;2024-03-08T12:01:06;19.6;30.0
79187;SHT31;68762;51.980;5.646;2024-03-08T12:03:36;19.7;32.7
79187;SHT31;68762;51.980;5.646;2024-03-08T12:06:05;19.9;30.7
79187;SHT31;68762;51.980;5.646;2024-03-08T12:08:35;20.1;30.0
79187;SHT31;68762;51.980;5.646;2024-03-08T12:11:06;20.3;29.4
79187;SHT31;68762;51.980;5.646;2024-03-08T12:13:36;20.5;28.7
79187;SHT31;68762;51.980;5.646;2024-03-08T12:16:08;20.6;28.0
79187;SHT31;68762;51.980;5.646;2024-03-08T12:18:38;20.7;28.3
79187;SHT31;68762;51.980;5.646;2024-03-08T12:21:09;20.8;27.6
79187;SHT31;68762;51.980;5.646;2024-03-08T12:23:40;20.8;27.4
79187;SHT31;68762;51.980;5.646;2024-03-08T12:26:13;20.9;27.2
79187;SHT31;68762;51.980;5.646;2024-03-08T12:28:44;20.9;28.6
79187;SHT31;68762;51.980;5.646;2024-03-08T12:31:15;21.0;27.1
79187;SHT31;68762;51.980;5.646;2024-03-08T12:33:52;21.0;28.4
79187;SHT31;68762;51.980;5.646;2024-03-08T12:36:21;21.1;28.8
79187;SHT31;68762;51.980;5.646;2024-03-08T12:38:50;21.2;28.4
79187;SHT31;68762;51.980;5.646;2024-03-08T12:41:20;21.3;27.7
79187;SHT31;68762;51.980;5.646;2024-03-08T12:43:49;21.4;27.6
79187;SHT31;68762;51.980;5.646;2024-03-08T12:46:19;21.5;27.9
79187;SHT31;68762;51.980;5.646;2024-03-08T12:48:48;21.6;27.5
79187;SHT31;68762;51.980;5.646;2024-03-08T12:51:21;21.7;26.8
79187;SHT31;68762;51.980;5.646;2024-03-08T12:53:50;21.8;27.5
79187;SHT31;68762;51.980;5.646;2024-03-08T12:56:32;21.8;26.7
79187;SHT31;68762;51.980;5.646;2024-03-08T12:59:01;21.9;26.5
79187;SHT31;68762;51.980;5.646;2024-03-08T13:01:30;21.9;26.5
79187;SHT31;68762;51.980;5.646;2024-03-08T13:03:59;21.9;26.3
79187;SHT31;68762;51.980;5.646;2024-03-08T13:06:29;22.0;26.7
79187;SHT31;68762;51.980;5.646;2024-03-08T13:08:58;22.0;27.4
79187;SHT31;68762;51.980;5.646;2024-03-08T13:11:31;22.0;27.4
79187;SHT31;68762;51.980;5.646;2024-03-08T13:14:03;22.0;26.0
79187;SHT31;68762;51.980;5.646;2024-03-08T13:16:32;22.0;26.4
79187;SHT31;68762;51.980;5.646;2024-03-08T13:19:01;22.0;27.4
79187;SHT31;68762;51.980;5.646;2024-03-08T13:21:31;22.0;26.8
79187;SHT31;68762;51.980;5.646;2024-03-08T13:23:59;22.1;28.2
79187;SHT31;68762;51.980;5.646;2024-03-08T13:26:28;22.1;26.4
79187;SHT31;68762;51.980;5.646;2024-03-08T13:28:59;22.2;27.1
79187;SHT31;68762;51.980;5.646;2024-03-08T13:31:28;22.2;25.7
79187;SHT31;68762;51.980;5.646;2024-03-08T13:33:56;22.2;25.8
79187;SHT31;68762;51.980;5.646;2024-03-08T13:36:28;22.2;27.0
79187;SHT31;68762;51.980;5.646;2024-03-08T13:39:02;22.1;26.9
79187;SHT31;68762;51.980;5.646;2024-03-08T13:41:36;22.1;26.6
79187;SHT31;68762;51.980;5.646;2024-03-08T13:44:06;22.1;27.8
79187;SHT31;68762;51.980;5.646;2024-03-08T13:46:34;22.1;26.4
79187;SHT31;68762;51.980;5.646;2024-03-08T13:49:05;22.1;26.5
79187;SHT31;68762;51.980;5.646;2024-03-08T13:51:36;22.1;26.6
79187;SHT31;68762;51.980;5.646;2024-03-08T13:54:05;22.1;26.7
79187;SHT31;68762;51.980;5.646;2024-03-08T13:56:34;22.0;26.8
79187;SHT31;68762;51.980;5.646;2024-03-08T13:59:05;21.9;26.6
79187;SHT31;68762;51.980;5.646;2024-03-08T14:01:35;21.9;27.1
79187;SHT31;68762;51.980;5.646;2024-03-08T14:04:04;21.9;27.3
79187;SHT31;68762;51.980;5.646;2024-03-08T14:06:35;21.8;28.2
79187;SHT31;68762;51.980;5.646;2024-03-08T14:09:03;21.8;27.6
79187;SHT31;68762;51.980;5.646;2024-03-08T14:11:34;21.8;27.8
79187;SHT31;68762;51.980;5.646;2024-03-08T14:14:03;21.8;28.3
79187;SHT31;68762;51.980;5.646;2024-03-08T14:16:32;21.8;27.7
79187;SHT31;68762;51.980;5.646;2024-03-08T14:19:02;21.8;27.6
79187;SHT31;68762;51.980;5.646;2024-03-08T14:21:32;21.7;27.2
79187;SHT31;68762;51.980;5.646;2024-03-08T14:24:01;21.7;27.7
79187;SHT31;68762;51.980;5.646;2024-03-08T14:26:31;21.7;27.8
79187;SHT31;68762;51.980;5.646;2024-03-08T14:29:00;21.6;28.0
79187;SHT31;68762;51.980;5.646;2024-03-08T14:31:32;21.6;26.4
79187;SHT31;68762;51.980;5.646;2024-03-08T14:34:02;21.5;28.1
79187;SHT31;68762;51.980;5.646;2024-03-08T14:36:31;21.5;28.3
79187;SHT31;68762;51.980;5.646;2024-03-08T14:39:00;21.5;27.7
79187;SHT31;68762;51.980;5.646;2024-03-08T14:41:30;21.4;28.5
79187;SHT31;68762;51.980;5.646;2024-03-08T14:44:02;21.4;28.5
79187;SHT31;68762;51.980;5.646;2024-03-08T14:46:30;21.4;27.2
79187;SHT31;68762;51.980;5.646;2024-03-08T14:48:59;21.3;27.5
79187;SHT31;68762;51.980;5.646;2024-03-08T14:51:28;21.3;28.9
79187;SHT31;68762;51.980;5.646;2024-03-08T14:54:00;21.2;29.0
79187;SHT31;68762;51.980;5.646;2024-03-08T14:56:28;21.2;28.9
79187;SHT31;68762;51.980;5.646;2024-03-08T14:58:57;21.2;29.3
79187;SHT31;68762;51.980;5.646;2024-03-08T15:01:27;21.2;28.3
79187;SHT31;68762;51.980;5.646;2024-03-08T15:03:59;21.2;28.7
79187;SHT31;68762;51.980;5.646;2024-03-08T15:06:33;21.2;29.1
79187;SHT31;68762;51.980;5.646;2024-03-08T15:09:03;21.1;28.5
79187;SHT31;68762;51.980;5.646;2024-03-08T15:11:37;21.1;27.8
79187;SHT31;68762;51.980;5.646;2024-03-08T15:14:06;21.0;28.3
79187;SHT31;68762;51.980;5.646;2024-03-08T15:16:38;20.9;27.7
79187;SHT31;68762;51.980;5.646;2024-03-08T15:19:09;20.8;29.2
79187;SHT31;68762;51.980;5.646;2024-03-08T15:21:38;20.7;28.2
79187;SHT31;68762;51.980;5.646;2024-03-08T15:24:11;20.6;28.4
79187;SHT31;68762;51.980;5.646;2024-03-08T15:26:41;20.5;29.6
79187;SHT31;68762;51.980;5.646;2024-03-08T15:29:11;20.4;30.1
79187;SHT31;68762;51.980;5.646;2024-03-08T15:31:40;20.3;29.2
79187;SHT31;68762;51.980;5.646;2024-03-08T15:34:09;20.1;30.3
79187;SHT31;68762;51.980;5.646;2024-03-08T15:36:39;20.0;30.5
79187;SHT31;68762;51.980;5.646;2024-03-08T15:39:09;20.0;32.8
79187;SHT31;68762;51.980;5.646;2024-03-08T15:41:38;19.9;31.8
79187;SHT31;68762;51.980;5.646;2024-03-08T15:44:07;19.8;31.3
79187;SHT31;68762;51.980;5.646;2024-03-08T15:46:38;19.7;31.5
79187;SHT31;68762;51.980;5.646;2024-03-08T15:49:08;19.5;31.1
79187;SHT31;68762;51.980;5.646;2024-03-08T15:51:38;19.4;31.5
79187;SHT31;68762;51.980;5.646;2024-03-08T15:54:07;19.3;31.9
79187;SHT31;68762;51.980;5.646;2024-03-08T15:56:36;19.1;31.8
79187;SHT31;68762;51.980;5.646;2024-03-08T15:59:05;19.0;32.2
79187;SHT31;68762;51.980;5.646;2024-03-08T16:01:35;18.9;30.9
79187;SHT31;68762;51.980;5.646;2024-03-08T16:04:03;18.8;31.0
79187;SHT31;68762;51.980;5.646;2024-03-08T16:06:33;18.6;31.3
79187;SHT31;68762;51.980;5.646;2024-03-08T16:09:03;18.4;31.2
79187;SHT31;68762;51.980;5.646;2024-03-08T16:11:37;18.2;32.1
79187;SHT31;68762;51.980;5.646;2024-03-08T16:14:06;18.0;31.9
79187;SHT31;68762;51.980;5.646;2024-03-08T16:16:37;17.8;32.0
79187;SHT31;68762;51.980;5.646;2024-03-08T16:19:06;17.6;32.4
79187;SHT31;68762;51.980;5.646;2024-03-08T16:21:35;17.4;32.4
79187;SHT31;68762;51.980;5.646;2024-03-08T16:24:04;17.2;33.7
79187;SHT31;68762;51.980;5.646;2024-03-08T16:26:32;17.0;33.3
79187;SHT31;68762;51.980;5.646;2024-03-08T16:29:02;16.8;33.5